sensor_id;sensor_type;location;lat;lon;timestamp;P1;durP1;ratioP1;P2;durP2;ratioP2
23113;SDS011;11726;50.122;8.832;2022-08-01T00:00:03;2.38;;;1.40;;
23113;SDS011;11726;50.122;8.832;2022-08-01T00:02:34;3.75;;;1.48;;
23113;SDS011;11726;50.122;8.832;2022-08-01T00:05:02;3.30;;;1.45;;
23113;SDS011;11726;50.122;8.832;2022-08-01T00:07:32;2.25;;;1.23;;
23113;SDS011;11726;50.122;8.832;2022-08-01T00:10:00;2.63;;;1.52;;
23113;SDS011;11726;50.122;8.832;2022-08-01T00:12:27;2.03;;;1.30;;
23113;SDS011;11726;50.122;8.832;2022-08-01T00:14:54;1.65;;;1.27;;
23113;SDS011;11726;50.122;8.832;2022-08-01T00:17:21;1.05;;;0.95;;
23113;SDS011;11726;50.122;8.832;2022-08-01T00:19:47;1.33;;;1.15;;
23113;SDS011;11726;50.122;8.832;2022-08-01T00:22:14;2.15;;;0.98;;
23113;SDS011;11726;50.122;8.832;2022-08-01T00:24:41;2.92;;;1.02;;
23113;SDS011;11726;50.122;8.832;2022-08-01T00:27:08;3.47;;;1.17;;
23113;SDS011;11726;50.122;8.832;2022-08-01T00:29:34;1.48;;;1.10;;
23113;SDS011;11726;50.122;8.832;2022-08-01T00:32:21;1.85;;;1.10;;
23113;SDS011;11726;50.122;8.832;2022-08-01T00:34:47;1.83;;;1.15;;
23113;SDS011;11726;50.122;8.832;2022-08-01T00:37:14;1.80;;;1.13;;
23113;SDS011;11726;50.122;8.832;2022-08-01T00:39:41;3.08;;;1.10;;
23113;SDS011;11726;50.122;8.832;2022-08-01T00:42:09;2.65;;;1.30;;
23113;SDS011;11726;50.122;8.832;2022-08-01T00:44:36;2.78;;;1.50;;
23113;SDS011;11726;50.122;8.832;2022-08-01T00:47:04;1.38;;;1.10;;
23113;SDS011;11726;50.122;8.832;2022-08-01T00:49:31;4.40;;;1.40;;
23113;SDS011;11726;50.122;8.832;2022-08-01T00:51:59;2.08;;;1.13;;
23113;SDS011;11726;50.122;8.832;2022-08-01T00:54:26;1.67;;;1.23;;
23113;SDS011;11726;50.122;8.832;2022-08-01T00:56:54;1.77;;;1.10;;
23113;SDS011;11726;50.122;8.832;2022-08-01T00:59:21;2.72;;;1.20;;
23113;SDS011;11726;50.122;8.832;2022-08-01T01:01:50;2.72;;;1.13;;
23113;SDS011;11726;50.122;8.832;2022-08-01T01:04:18;2.00;;;1.20;;
23113;SDS011;11726;50.122;8.832;2022-08-01T01:06:51;1.25;;;1.10;;
23113;SDS011;11726;50.122;8.832;2022-08-01T01:09:42;2.50;;;1.40;;
23113;SDS011;11726;50.122;8.832;2022-08-01T01:15:06;0.95;;;0.95;;
23113;SDS011;11726;50.122;8.832;2022-08-01T01:17:59;2.30;;;1.42;;
23113;SDS011;11726;50.122;8.832;2022-08-01T01:20:49;2.65;;;1.30;;
23113;SDS011;11726;50.122;8.832;2022-08-01T01:23:34;2.72;;;1.27;;
23113;SDS011;11726;50.122;8.832;2022-08-01T01:29:35;2.17;;;1.30;;
23113;SDS011;11726;50.122;8.832;2022-08-01T01:32:28;1.67;;;1.30;;
23113;SDS011;11726;50.122;8.832;2022-08-01T01:35:00;1.63;;;1.10;;
23113;SDS011;11726;50.122;8.832;2022-08-01T01:37:31;1.60;;;1.27;;
23113;SDS011;11726;50.122;8.832;2022-08-01T01:40:00;2.38;;;1.55;;
23113;SDS011;11726;50.122;8.832;2022-08-01T01:42:28;4.03;;;1.33;;
23113;SDS011;11726;50.122;8.832;2022-08-01T01:44:56;1.80;;;1.45;;
23113;SDS011;11726;50.122;8.832;2022-08-01T01:47:24;1.73;;;1.10;;
23113;SDS011;11726;50.122;8.832;2022-08-01T01:49:53;1.80;;;1.20;;
23113;SDS011;11726;50.122;8.832;2022-08-01T01:52:22;2.95;;;1.30;;
23113;SDS011;11726;50.122;8.832;2022-08-01T01:54:51;1.48;;;1.15;;
23113;SDS011;11726;50.122;8.832;2022-08-01T01:57:19;2.60;;;1.33;;
23113;SDS011;11726;50.122;8.832;2022-08-01T01:59:46;1.42;;;1.08;;
23113;SDS011;11726;50.122;8.832;2022-08-01T02:02:15;1.60;;;1.05;;
23113;SDS011;11726;50.122;8.832;2022-08-01T02:04:44;4.95;;;1.20;;
23113;SDS011;11726;50.122;8.832;2022-08-01T02:07:14;2.00;;;1.23;;
23113;SDS011;11726;50.122;8.832;2022-08-01T02:09:45;1.48;;;1.17;;
23113;SDS011;11726;50.122;8.832;2022-08-01T02:12:13;3.53;;;1.30;;
23113;SDS011;11726;50.122;8.832;2022-08-01T02:14:42;1.73;;;1.00;;
23113;SDS011;11726;50.122;8.832;2022-08-01T02:17:12;3.17;;;1.08;;
23113;SDS011;11726;50.122;8.832;2022-08-01T02:19:43;2.10;;;1.15;;
23113;SDS011;11726;50.122;8.832;2022-08-01T02:22:11;2.22;;;1.20;;
23113;SDS011;11726;50.122;8.832;2022-08-01T02:27:25;3.38;;;1.50;;
23113;SDS011;11726;50.122;8.832;2022-08-01T02:30:01;1.48;;;1.15;;
23113;SDS011;11726;50.122;8.832;2022-08-01T02:32:31;1.48;;;1.25;;
23113;SDS011;11726;50.122;8.832;2022-08-01T02:35:03;2.78;;;1.20;;
23113;SDS011;11726;50.122;8.832;2022-08-01T02:37:34;3.42;;;1.02;;
23113;SDS011;11726;50.122;8.832;2022-08-01T02:40:10;1.85;;;1.10;;
23113;SDS011;11726;50.122;8.832;2022-08-01T02:42:40;2.38;;;1.20;;
23113;SDS011;11726;50.122;8.832;2022-08-01T02:45:10;1.38;;;1.00;;
23113;SDS011;11726;50.122;8.832;2022-08-01T02:47:38;3.40;;;1.38;;
23113;SDS011;11726;50.122;8.832;2022-08-01T02:50:09;2.55;;;1.30;;
23113;SDS011;11726;50.122;8.832;2022-08-01T02:52:38;2.97;;;1.23;;
23113;SDS011;11726;50.122;8.832;2022-08-01T02:55:07;5.18;;;1.30;;
23113;SDS011;11726;50.122;8.832;2022-08-01T02:57:36;2.20;;;1.27;;
23113;SDS011;11726;50.122;8.832;2022-08-01T03:00:17;3.67;;;1.48;;
23113;SDS011;11726;50.122;8.832;2022-08-01T03:02:45;2.67;;;1.40;;
23113;SDS011;11726;50.122;8.832;2022-08-01T03:05:14;2.38;;;1.33;;
23113;SDS011;11726;50.122;8.832;2022-08-01T03:07:43;2.78;;;1.30;;
23113;SDS011;11726;50.122;8.832;2022-08-01T03:10:13;7.20;;;1.45;;
23113;SDS011;11726;50.122;8.832;2022-08-01T03:12:42;4.28;;;1.38;;
23113;SDS011;11726;50.122;8.832;2022-08-01T03:15:13;2.45;;;1.17;;
23113;SDS011;11726;50.122;8.832;2022-08-01T03:17:41;2.60;;;1.27;;
23113;SDS011;11726;50.122;8.832;2022-08-01T03:20:13;5.40;;;1.45;;
23113;SDS011;11726;50.122;8.832;2022-08-01T03:22:42;3.10;;;1.40;;
23113;SDS011;11726;50.122;8.832;2022-08-01T03:25:11;6.78;;;1.33;;
23113;SDS011;11726;50.122;8.832;2022-08-01T03:27:39;5.03;;;1.20;;
23113;SDS011;11726;50.122;8.832;2022-08-01T03:30:09;2.45;;;1.30;;
23113;SDS011;11726;50.122;8.832;2022-08-01T03:32:36;1.92;;;1.27;;
23113;SDS011;11726;50.122;8.832;2022-08-01T03:35:04;3.17;;;1.27;;
23113;SDS011;11726;50.122;8.832;2022-08-01T03:37:36;5.18;;;1.20;;
23113;SDS011;11726;50.122;8.832;2022-08-01T03:40:30;4.70;;;1.30;;
23113;SDS011;11726;50.122;8.832;2022-08-01T03:43:08;1.50;;;1.30;;
23113;SDS011;11726;50.122;8.832;2022-08-01T03:45:41;2.63;;;1.60;;
23113;SDS011;11726;50.122;8.832;2022-08-01T03:48:14;2.58;;;1.60;;
23113;SDS011;11726;50.122;8.832;2022-08-01T03:50:45;1.83;;;1.52;;
23113;SDS011;11726;50.122;8.832;2022-08-01T03:53:13;2.58;;;1.50;;
23113;SDS011;11726;50.122;8.832;2022-08-01T03:55:42;1.63;;;1.52;;
23113;SDS011;11726;50.122;8.832;2022-08-01T03:58:09;1.35;;;1.25;;
23113;SDS011;11726;50.122;8.832;2022-08-01T04:00:37;1.70;;;1.05;;
23113;SDS011;11726;50.122;8.832;2022-08-01T04:03:08;3.47;;;1.42;;
23113;SDS011;11726;50.122;8.832;2022-08-01T04:05:35;3.03;;;1.40;;
23113;SDS011;11726;50.122;8.832;2022-08-01T04:08:02;8.82;;;1.65;;
23113;SDS011;11726;50.122;8.832;2022-08-01T04:10:29;3.67;;;1.63;;
23113;SDS011;11726;50.122;8.832;2022-08-01T04:12:55;3.08;;;1.40;;
23113;SDS011;11726;50.122;8.832;2022-08-01T04:15:22;2.88;;;1.50;;
23113;SDS011;11726;50.122;8.832;2022-08-01T04:17:49;4.78;;;1.63;;
23113;SDS011;11726;50.122;8.832;2022-08-01T04:20:16;3.03;;;1.45;;
23113;SDS011;11726;50.122;8.832;2022-08-01T04:22:43;8.82;;;1.52;;
23113;SDS011;11726;50.122;8.832;2022-08-01T04:25:21;2.65;;;1.67;;
23113;SDS011;11726;50.122;8.832;2022-08-01T04:28:01;1.90;;;1.40;;
23113;SDS011;11726;50.122;8.832;2022-08-01T04:30:31;2.15;;;1.10;;
23113;SDS011;11726;50.122;8.832;2022-08-01T04:33:02;4.07;;;1.50;;
23113;SDS011;11726;50.122;8.832;2022-08-01T04:35:31;3.17;;;1.40;;
23113;SDS011;11726;50.122;8.832;2022-08-01T04:38:20;3.20;;;1.58;;
23113;SDS011;11726;50.122;8.832;2022-08-01T04:40:49;4.25;;;1.83;;
23113;SDS011;11726;50.122;8.832;2022-08-01T04:43:18;3.13;;;1.50;;
23113;SDS011;11726;50.122;8.832;2022-08-01T04:45:45;3.17;;;2.00;;
23113;SDS011;11726;50.122;8.832;2022-08-01T04:48:15;2.63;;;1.60;;
23113;SDS011;11726;50.122;8.832;2022-08-01T04:50:48;4.35;;;1.73;;
23113;SDS011;11726;50.122;8.832;2022-08-01T04:53:15;2.60;;;1.75;;
23113;SDS011;11726;50.122;8.832;2022-08-01T04:55:44;2.95;;;1.40;;
23113;SDS011;11726;50.122;8.832;2022-08-01T04:58:12;3.58;;;1.73;;
23113;SDS011;11726;50.122;8.832;2022-08-01T05:00:43;2.38;;;1.52;;
23113;SDS011;11726;50.122;8.832;2022-08-01T05:03:10;3.10;;;1.58;;
23113;SDS011;11726;50.122;8.832;2022-08-01T05:05:37;2.72;;;1.80;;
23113;SDS011;11726;50.122;8.832;2022-08-01T05:08:04;3.70;;;1.70;;
23113;SDS011;11726;50.122;8.832;2022-08-01T05:10:32;2.03;;;1.60;;
23113;SDS011;11726;50.122;8.832;2022-08-01T05:12:58;2.83;;;1.50;;
23113;SDS011;11726;50.122;8.832;2022-08-01T05:15:25;3.25;;;1.60;;
23113;SDS011;11726;50.122;8.832;2022-08-01T05:17:53;3.22;;;1.85;;
23113;SDS011;11726;50.122;8.832;2022-08-01T05:20:20;2.53;;;1.45;;
23113;SDS011;11726;50.122;8.832;2022-08-01T05:22:47;2.25;;;1.50;;
23113;SDS011;11726;50.122;8.832;2022-08-01T05:25:14;2.90;;;1.50;;
23113;SDS011;11726;50.122;8.832;2022-08-01T05:27:47;1.45;;;1.35;;
23113;SDS011;11726;50.122;8.832;2022-08-01T05:30:16;3.35;;;1.63;;
23113;SDS011;11726;50.122;8.832;2022-08-01T05:32:42;3.45;;;1.50;;
23113;SDS011;11726;50.122;8.832;2022-08-01T05:35:09;2.50;;;1.50;;
23113;SDS011;11726;50.122;8.832;2022-08-01T05:37:36;3.42;;;1.75;;
23113;SDS011;11726;50.122;8.832;2022-08-01T05:40:03;2.78;;;1.60;;
23113;SDS011;11726;50.122;8.832;2022-08-01T05:42:30;2.05;;;1.42;;
23113;SDS011;11726;50.122;8.832;2022-08-01T05:44:57;2.25;;;1.50;;
23113;SDS011;11726;50.122;8.832;2022-08-01T05:47:23;3.03;;;1.65;;
23113;SDS011;11726;50.122;8.832;2022-08-01T05:49:50;2.90;;;1.30;;
23113;SDS011;11726;50.122;8.832;2022-08-01T05:52:17;1.92;;;1.40;;
23113;SDS011;11726;50.122;8.832;2022-08-01T05:54:43;3.88;;;1.70;;
23113;SDS011;11726;50.122;8.832;2022-08-01T05:57:10;4.43;;;1.67;;
23113;SDS011;11726;50.122;8.832;2022-08-01T05:59:37;1.83;;;1.40;;
23113;SDS011;11726;50.122;8.832;2022-08-01T06:02:04;1.73;;;1.55;;
23113;SDS011;11726;50.122;8.832;2022-08-01T06:04:31;3.35;;;1.70;;
23113;SDS011;11726;50.122;8.832;2022-08-01T06:06:58;2.42;;;1.70;;
23113;SDS011;11726;50.122;8.832;2022-08-01T06:09:24;2.65;;;1.90;;
23113;SDS011;11726;50.122;8.832;2022-08-01T06:11:51;3.28;;;1.75;;
23113;SDS011;11726;50.122;8.832;2022-08-01T06:14:18;2.38;;;1.88;;
23113;SDS011;11726;50.122;8.832;2022-08-01T06:16:44;1.77;;;1.42;;
23113;SDS011;11726;50.122;8.832;2022-08-01T06:19:11;3.15;;;1.70;;
23113;SDS011;11726;50.122;8.832;2022-08-01T06:21:37;3.88;;;1.63;;
23113;SDS011;11726;50.122;8.832;2022-08-01T06:24:04;2.90;;;1.60;;
23113;SDS011;11726;50.122;8.832;2022-08-01T06:26:31;5.30;;;2.00;;
23113;SDS011;11726;50.122;8.832;2022-08-01T06:28:57;2.70;;;1.90;;
23113;SDS011;11726;50.122;8.832;2022-08-01T06:31:24;3.95;;;2.42;;
23113;SDS011;11726;50.122;8.832;2022-08-01T06:33:57;3.72;;;1.92;;
23113;SDS011;11726;50.122;8.832;2022-08-01T06:36:23;2.65;;;2.10;;
23113;SDS011;11726;50.122;8.832;2022-08-01T06:38:51;2.33;;;2.10;;
23113;SDS011;11726;50.122;8.832;2022-08-01T06:41:18;3.25;;;2.47;;
23113;SDS011;11726;50.122;8.832;2022-08-01T06:43:44;3.08;;;2.20;;
23113;SDS011;11726;50.122;8.832;2022-08-01T06:46:11;3.05;;;2.10;;
23113;SDS011;11726;50.122;8.832;2022-08-01T06:48:38;3.00;;;2.00;;
23113;SDS011;11726;50.122;8.832;2022-08-01T06:51:05;3.22;;;1.73;;
23113;SDS011;11726;50.122;8.832;2022-08-01T06:53:35;2.97;;;1.85;;
23113;SDS011;11726;50.122;8.832;2022-08-01T06:56:03;3.20;;;2.05;;
23113;SDS011;11726;50.122;8.832;2022-08-01T06:58:31;3.53;;;2.15;;
23113;SDS011;11726;50.122;8.832;2022-08-01T07:00:58;2.55;;;2.05;;
23113;SDS011;11726;50.122;8.832;2022-08-01T07:03:24;3.08;;;2.00;;
23113;SDS011;11726;50.122;8.832;2022-08-01T07:06:11;3.45;;;2.00;;
23113;SDS011;11726;50.122;8.832;2022-08-01T07:08:40;6.38;;;2.13;;
23113;SDS011;11726;50.122;8.832;2022-08-01T07:11:07;3.65;;;2.38;;
23113;SDS011;11726;50.122;8.832;2022-08-01T07:13:34;4.57;;;2.60;;
23113;SDS011;11726;50.122;8.832;2022-08-01T07:16:11;3.42;;;2.58;;
23113;SDS011;11726;50.122;8.832;2022-08-01T07:18:38;2.60;;;2.40;;
23113;SDS011;11726;50.122;8.832;2022-08-01T07:21:05;3.22;;;2.75;;
23113;SDS011;11726;50.122;8.832;2022-08-01T07:23:42;4.22;;;2.90;;
23113;SDS011;11726;50.122;8.832;2022-08-01T07:26:11;5.18;;;2.80;;
23113;SDS011;11726;50.122;8.832;2022-08-01T07:28:39;3.80;;;2.65;;
23113;SDS011;11726;50.122;8.832;2022-08-01T07:31:09;4.10;;;2.80;;
23113;SDS011;11726;50.122;8.832;2022-08-01T07:33:36;3.45;;;3.10;;
23113;SDS011;11726;50.122;8.832;2022-08-01T07:36:14;3.15;;;2.85;;
23113;SDS011;11726;50.122;8.832;2022-08-01T07:38:42;3.83;;;2.72;;
23113;SDS011;11726;50.122;8.832;2022-08-01T07:41:08;3.55;;;2.83;;
23113;SDS011;11726;50.122;8.832;2022-08-01T07:43:35;3.25;;;2.95;;
23113;SDS011;11726;50.122;8.832;2022-08-01T07:46:03;3.35;;;3.05;;
23113;SDS011;11726;50.122;8.832;2022-08-01T07:48:30;3.17;;;2.88;;
23113;SDS011;11726;50.122;8.832;2022-08-01T07:50:57;4.15;;;3.05;;
23113;SDS011;11726;50.122;8.832;2022-08-01T07:53:24;4.65;;;3.50;;
23113;SDS011;11726;50.122;8.832;2022-08-01T07:55:51;4.35;;;2.85;;
23113;SDS011;11726;50.122;8.832;2022-08-01T07:58:18;3.20;;;2.90;;
23113;SDS011;11726;50.122;8.832;2022-08-01T08:00:44;4.15;;;3.17;;
23113;SDS011;11726;50.122;8.832;2022-08-01T08:03:11;4.88;;;3.03;;
23113;SDS011;11726;50.122;8.832;2022-08-01T08:05:38;3.83;;;2.80;;
23113;SDS011;11726;50.122;8.832;2022-08-01T08:08:24;4.50;;;3.25;;
23113;SDS011;11726;50.122;8.832;2022-08-01T08:10:51;3.63;;;3.33;;
23113;SDS011;11726;50.122;8.832;2022-08-01T08:13:17;3.20;;;3.00;;
23113;SDS011;11726;50.122;8.832;2022-08-01T08:15:46;3.47;;;3.10;;
23113;SDS011;11726;50.122;8.832;2022-08-01T08:18:15;7.53;;;3.30;;
23113;SDS011;11726;50.122;8.832;2022-08-01T08:20:42;4.03;;;3.15;;
23113;SDS011;11726;50.122;8.832;2022-08-01T08:23:09;4.00;;;3.10;;
23113;SDS011;11726;50.122;8.832;2022-08-01T08:26:11;6.35;;;3.20;;
23113;SDS011;11726;50.122;8.832;2022-08-01T08:28:38;4.80;;;3.40;;
23113;SDS011;11726;50.122;8.832;2022-08-01T08:31:07;3.65;;;3.05;;
23113;SDS011;11726;50.122;8.832;2022-08-01T08:33:51;3.20;;;3.00;;
23113;SDS011;11726;50.122;8.832;2022-08-01T08:36:18;5.43;;;3.47;;
23113;SDS011;11726;50.122;8.832;2022-08-01T08:38:56;5.10;;;3.50;;
23113;SDS011;11726;50.122;8.832;2022-08-01T08:41:22;4.10;;;3.70;;
23113;SDS011;11726;50.122;8.832;2022-08-01T08:43:49;4.13;;;3.83;;
23113;SDS011;11726;50.122;8.832;2022-08-01T08:46:16;5.43;;;4.10;;
23113;SDS011;11726;50.122;8.832;2022-08-01T08:48:53;4.90;;;4.07;;
23113;SDS011;11726;50.122;8.832;2022-08-01T08:51:21;4.18;;;3.88;;
23113;SDS011;11726;50.122;8.832;2022-08-01T08:53:51;4.20;;;3.80;;
23113;SDS011;11726;50.122;8.832;2022-08-01T08:56:21;4.05;;;3.67;;
23113;SDS011;11726;50.122;8.832;2022-08-01T08:58:53;4.97;;;4.45;;
23113;SDS011;11726;50.122;8.832;2022-08-01T09:01:20;5.28;;;4.28;;
23113;SDS011;11726;50.122;8.832;2022-08-01T09:03:48;5.45;;;4.10;;
23113;SDS011;11726;50.122;8.832;2022-08-01T09:06:14;4.80;;;4.03;;
23113;SDS011;11726;50.122;8.832;2022-08-01T09:08:41;5.28;;;4.30;;
23113;SDS011;11726;50.122;8.832;2022-08-01T09:11:08;4.90;;;4.40;;
23113;SDS011;11726;50.122;8.832;2022-08-01T09:13:35;4.80;;;4.35;;
23113;SDS011;11726;50.122;8.832;2022-08-01T09:16:15;4.57;;;4.18;;
23113;SDS011;11726;50.122;8.832;2022-08-01T09:18:43;5.88;;;4.05;;
23113;SDS011;11726;50.122;8.832;2022-08-01T09:21:20;4.35;;;3.95;;
23113;SDS011;11726;50.122;8.832;2022-08-01T09:23:50;4.30;;;3.90;;
23113;SDS011;11726;50.122;8.832;2022-08-01T09:26:29;3.55;;;3.33;;
23113;SDS011;11726;50.122;8.832;2022-08-01T09:28:59;3.97;;;3.65;;
23113;SDS011;11726;50.122;8.832;2022-08-01T09:31:39;4.00;;;3.60;;
23113;SDS011;11726;50.122;8.832;2022-08-01T09:34:13;4.75;;;3.70;;
23113;SDS011;11726;50.122;8.832;2022-08-01T09:36:53;4.38;;;3.80;;
23113;SDS011;11726;50.122;8.832;2022-08-01T09:39:43;6.38;;;3.65;;
23113;SDS011;11726;50.122;8.832;2022-08-01T09:42:26;5.68;;;3.75;;
23113;SDS011;11726;50.122;8.832;2022-08-01T09:44:54;4.47;;;3.80;;
23113;SDS011;11726;50.122;8.832;2022-08-01T09:47:21;4.45;;;3.50;;
23113;SDS011;11726;50.122;8.832;2022-08-01T09:49:55;4.03;;;3.50;;
23113;SDS011;11726;50.122;8.832;2022-08-01T09:52:25;4.32;;;3.60;;
23113;SDS011;11726;50.122;8.832;2022-08-01T09:54:58;3.65;;;3.35;;
23113;SDS011;11726;50.122;8.832;2022-08-01T09:57:26;4.20;;;3.80;;
23113;SDS011;11726;50.122;8.832;2022-08-01T09:59:55;3.80;;;3.50;;
23113;SDS011;11726;50.122;8.832;2022-08-01T10:02:27;3.78;;;3.45;;
23113;SDS011;11726;50.122;8.832;2022-08-01T10:04:55;4.38;;;3.90;;
23113;SDS011;11726;50.122;8.832;2022-08-01T10:07:32;4.30;;;3.78;;
23113;SDS011;11726;50.122;8.832;2022-08-01T10:10:13;5.10;;;3.90;;
23113;SDS011;11726;50.122;8.832;2022-08-01T10:12:41;3.40;;;3.10;;
23113;SDS011;11726;50.122;8.832;2022-08-01T10:15:11;3.40;;;3.20;;
23113;SDS011;11726;50.122;8.832;2022-08-01T10:17:46;4.28;;;3.70;;
23113;SDS011;11726;50.122;8.832;2022-08-01T10:20:29;3.72;;;3.42;;
23113;SDS011;11726;50.122;8.832;2022-08-01T10:22:59;4.70;;;3.75;;
23113;SDS011;11726;50.122;8.832;2022-08-01T10:25:35;4.70;;;3.70;;
23113;SDS011;11726;50.122;8.832;2022-08-01T10:28:15;4.55;;;3.63;;
23113;SDS011;11726;50.122;8.832;2022-08-01T10:30:49;3.55;;;3.22;;
23113;SDS011;11726;50.122;8.832;2022-08-01T10:33:18;3.92;;;3.45;;
23113;SDS011;11726;50.122;8.832;2022-08-01T10:36:08;5.43;;;4.25;;
23113;SDS011;11726;50.122;8.832;2022-08-01T10:38:36;5.50;;;3.60;;
23113;SDS011;11726;50.122;8.832;2022-08-01T10:41:04;3.75;;;3.45;;
23113;SDS011;11726;50.122;8.832;2022-08-01T10:43:34;4.03;;;3.53;;
23113;SDS011;11726;50.122;8.832;2022-08-01T10:46:01;3.92;;;3.20;;
23113;SDS011;11726;50.122;8.832;2022-08-01T10:51:02;3.90;;;3.13;;
23113;SDS011;11726;50.122;8.832;2022-08-01T10:53:47;4.75;;;3.60;;
23113;SDS011;11726;50.122;8.832;2022-08-01T10:56:20;3.85;;;3.20;;
23113;SDS011;11726;50.122;8.832;2022-08-01T10:59:00;3.92;;;3.20;;
23113;SDS011;11726;50.122;8.832;2022-08-01T11:01:32;4.35;;;3.40;;
23113;SDS011;11726;50.122;8.832;2022-08-01T11:04:11;3.70;;;3.45;;
23113;SDS011;11726;50.122;8.832;2022-08-01T11:06:53;3.67;;;3.38;;
23113;SDS011;11726;50.122;8.832;2022-08-01T11:09:42;4.45;;;3.25;;
23113;SDS011;11726;50.122;8.832;2022-08-01T11:20:12;3.60;;;3.20;;
23113;SDS011;11726;50.122;8.832;2022-08-01T11:28:32;3.50;;;3.30;;
23113;SDS011;11726;50.122;8.832;2022-08-01T11:38:41;3.67;;;3.42;;
23113;SDS011;11726;50.122;8.832;2022-08-01T11:41:22;3.55;;;3.17;;
23113;SDS011;11726;50.122;8.832;2022-08-01T11:44:08;4.15;;;3.60;;
23113;SDS011;11726;50.122;8.832;2022-08-01T11:49:26;3.90;;;3.60;;
23113;SDS011;11726;50.122;8.832;2022-08-01T11:57:10;3.60;;;3.30;;
23113;SDS011;11726;50.122;8.832;2022-08-01T11:59:45;3.97;;;3.67;;
23113;SDS011;11726;50.122;8.832;2022-08-01T12:04:58;3.63;;;3.10;;
23113;SDS011;11726;50.122;8.832;2022-08-01T12:07:27;3.60;;;3.10;;
23113;SDS011;11726;50.122;8.832;2022-08-01T12:09:59;4.88;;;3.10;;
23113;SDS011;11726;50.122;8.832;2022-08-01T12:12:32;3.45;;;3.15;;
23113;SDS011;11726;50.122;8.832;2022-08-01T12:15:02;3.78;;;2.95;;
23113;SDS011;11726;50.122;8.832;2022-08-01T12:17:39;3.60;;;2.75;;
23113;SDS011;11726;50.122;8.832;2022-08-01T12:20:23;3.30;;;3.00;;
23113;SDS011;11726;50.122;8.832;2022-08-01T12:22:55;5.43;;;3.10;;
23113;SDS011;11726;50.122;8.832;2022-08-01T12:25:23;4.13;;;2.75;;
23113;SDS011;11726;50.122;8.832;2022-08-01T12:27:50;3.45;;;2.80;;
23113;SDS011;11726;50.122;8.832;2022-08-01T12:30:21;3.08;;;2.83;;
23113;SDS011;11726;50.122;8.832;2022-08-01T12:32:50;4.80;;;3.05;;
23113;SDS011;11726;50.122;8.832;2022-08-01T12:35:18;3.03;;;2.78;;
23113;SDS011;11726;50.122;8.832;2022-08-01T12:37:50;4.28;;;3.20;;
23113;SDS011;11726;50.122;8.832;2022-08-01T12:40:20;2.65;;;2.45;;
23113;SDS011;11726;50.122;8.832;2022-08-01T12:42:49;3.55;;;2.85;;
23113;SDS011;11726;50.122;8.832;2022-08-01T12:45:18;2.83;;;2.42;;
23113;SDS011;11726;50.122;8.832;2022-08-01T12:47:47;2.67;;;2.47;;
23113;SDS011;11726;50.122;8.832;2022-08-01T12:50:16;4.53;;;2.70;;
23113;SDS011;11726;50.122;8.832;2022-08-01T12:52:48;3.88;;;2.60;;
23113;SDS011;11726;50.122;8.832;2022-08-01T12:55:20;4.00;;;2.70;;
23113;SDS011;11726;50.122;8.832;2022-08-01T12:57:49;3.05;;;2.80;;
23113;SDS011;11726;50.122;8.832;2022-08-01T13:00:28;2.97;;;2.53;;
23113;SDS011;11726;50.122;8.832;2022-08-01T13:03:05;2.75;;;2.45;;
23113;SDS011;11726;50.122;8.832;2022-08-01T13:05:43;2.50;;;2.30;;
23113;SDS011;11726;50.122;8.832;2022-08-01T13:08:15;3.80;;;2.30;;
23113;SDS011;11726;50.122;8.832;2022-08-01T13:10:48;3.17;;;2.40;;
23113;SDS011;11726;50.122;8.832;2022-08-01T13:13:16;2.75;;;2.25;;
23113;SDS011;11726;50.122;8.832;2022-08-01T13:16:02;2.75;;;2.40;;
23113;SDS011;11726;50.122;8.832;2022-08-01T13:18:31;2.42;;;2.22;;
23113;SDS011;11726;50.122;8.832;2022-08-01T13:21:09;2.25;;;2.05;;
23113;SDS011;11726;50.122;8.832;2022-08-01T13:23:37;2.70;;;2.50;;
23113;SDS011;11726;50.122;8.832;2022-08-01T13:26:42;2.50;;;2.30;;
23113;SDS011;11726;50.122;8.832;2022-08-01T13:29:21;3.00;;;2.08;;
23113;SDS011;11726;50.122;8.832;2022-08-01T13:31:55;3.47;;;2.33;;
23113;SDS011;11726;50.122;8.832;2022-08-01T13:34:34;4.75;;;2.58;;
23113;SDS011;11726;50.122;8.832;2022-08-01T13:37:01;2.95;;;2.20;;
23113;SDS011;11726;50.122;8.832;2022-08-01T13:39:28;3.72;;;2.55;;
23113;SDS011;11726;50.122;8.832;2022-08-01T13:42:13;3.35;;;2.40;;
23113;SDS011;11726;50.122;8.832;2022-08-01T13:47:11;2.60;;;2.40;;
23113;SDS011;11726;50.122;8.832;2022-08-01T13:49:41;3.03;;;2.65;;
23113;SDS011;11726;50.122;8.832;2022-08-01T13:52:07;3.53;;;2.10;;
23113;SDS011;11726;50.122;8.832;2022-08-01T13:54:35;2.33;;;2.13;;
23113;SDS011;11726;50.122;8.832;2022-08-01T13:57:02;2.38;;;2.17;;
23113;SDS011;11726;50.122;8.832;2022-08-01T13:59:29;2.33;;;2.10;;
23113;SDS011;11726;50.122;8.832;2022-08-01T14:01:55;2.38;;;2.10;;
23113;SDS011;11726;50.122;8.832;2022-08-01T14:04:22;2.50;;;2.30;;
23113;SDS011;11726;50.122;8.832;2022-08-01T14:06:49;2.15;;;2.05;;
23113;SDS011;11726;50.122;8.832;2022-08-01T14:09:16;2.55;;;2.10;;
23113;SDS011;11726;50.122;8.832;2022-08-01T14:11:49;2.30;;;2.20;;
23113;SDS011;11726;50.122;8.832;2022-08-01T14:14:16;3.30;;;2.13;;
23113;SDS011;11726;50.122;8.832;2022-08-01T14:16:43;2.65;;;2.05;;
23113;SDS011;11726;50.122;8.832;2022-08-01T14:19:11;4.50;;;2.10;;
23113;SDS011;11726;50.122;8.832;2022-08-01T14:21:38;3.17;;;2.40;;
23113;SDS011;11726;50.122;8.832;2022-08-01T14:24:05;2.40;;;2.20;;
23113;SDS011;11726;50.122;8.832;2022-08-01T14:26:32;2.45;;;2.20;;
23113;SDS011;11726;50.122;8.832;2022-08-01T14:29:01;1.95;;;1.85;;
23113;SDS011;11726;50.122;8.832;2022-08-01T14:31:27;3.13;;;2.05;;
23113;SDS011;11726;50.122;8.832;2022-08-01T14:33:59;2.35;;;1.95;;
23113;SDS011;11726;50.122;8.832;2022-08-01T14:36:26;2.83;;;2.20;;
23113;SDS011;11726;50.122;8.832;2022-08-01T14:38:56;3.05;;;2.30;;
23113;SDS011;11726;50.122;8.832;2022-08-01T14:41:26;3.05;;;2.53;;
23113;SDS011;11726;50.122;8.832;2022-08-01T14:43:53;2.10;;;2.00;;
23113;SDS011;11726;50.122;8.832;2022-08-01T14:46:20;2.33;;;2.13;;
23113;SDS011;11726;50.122;8.832;2022-08-01T14:48:46;3.22;;;2.42;;
23113;SDS011;11726;50.122;8.832;2022-08-01T14:51:13;2.38;;;2.10;;
23113;SDS011;11726;50.122;8.832;2022-08-01T14:53:40;2.20;;;2.10;;
23113;SDS011;11726;50.122;8.832;2022-08-01T14:56:12;3.38;;;2.10;;
23113;SDS011;11726;50.122;8.832;2022-08-01T14:58:39;2.50;;;2.30;;
23113;SDS011;11726;50.122;8.832;2022-08-01T15:01:05;3.03;;;2.40;;
23113;SDS011;11726;50.122;8.832;2022-08-01T15:03:32;2.53;;;2.30;;
23113;SDS011;11726;50.122;8.832;2022-08-01T15:05:58;2.65;;;2.35;;
23113;SDS011;11726;50.122;8.832;2022-08-01T15:08:25;3.45;;;2.60;;
23113;SDS011;11726;50.122;8.832;2022-08-01T15:10:52;2.50;;;2.30;;
23113;SDS011;11726;50.122;8.832;2022-08-01T15:13:19;2.90;;;2.60;;
23113;SDS011;11726;50.122;8.832;2022-08-01T15:15:45;3.08;;;2.78;;
23113;SDS011;11726;50.122;8.832;2022-08-01T15:18:13;4.03;;;2.80;;
23113;SDS011;11726;50.122;8.832;2022-08-01T15:20:39;5.57;;;2.78;;
23113;SDS011;11726;50.122;8.832;2022-08-01T15:23:06;2.88;;;2.60;;
23113;SDS011;11726;50.122;8.832;2022-08-01T15:25:33;3.67;;;2.75;;
23113;SDS011;11726;50.122;8.832;2022-08-01T15:28:10;2.70;;;2.50;;
23113;SDS011;11726;50.122;8.832;2022-08-01T15:30:37;2.58;;;2.33;;
23113;SDS011;11726;50.122;8.832;2022-08-01T15:33:04;3.92;;;2.70;;
23113;SDS011;11726;50.122;8.832;2022-08-01T15:35:31;6.32;;;2.70;;
23113;SDS011;11726;50.122;8.832;2022-08-01T15:37:59;3.65;;;2.58;;
23113;SDS011;11726;50.122;8.832;2022-08-01T15:40:25;3.33;;;2.47;;
23113;SDS011;11726;50.122;8.832;2022-08-01T15:42:54;2.40;;;2.20;;
23113;SDS011;11726;50.122;8.832;2022-08-01T15:45:21;2.40;;;2.20;;
23113;SDS011;11726;50.122;8.832;2022-08-01T15:48:08;3.13;;;2.47;;
23113;SDS011;11726;50.122;8.832;2022-08-01T15:50:35;4.22;;;2.50;;
23113;SDS011;11726;50.122;8.832;2022-08-01T15:53:04;3.28;;;2.50;;